createdAt,value
2019-04-22T00:01:24.787Z,13.80
2019-04-22T00:03:56.525Z,13.80
2019-04-22T00:06:44.279Z,13.90
2019-04-22T00:09:19.214Z,13.90
2019-04-22T00:11:59.302Z,13.80
2019-04-22T00:14:11.910Z,13.90
2019-04-22T00:16:51.830Z,13.90
2019-04-22T00:21:55.757Z,13.90
2019-04-22T00:24:27.602Z,13.80
2019-04-22T00:26:59.958Z,13.90
2019-04-22T00:32:11.385Z,13.80
2019-04-22T00:34:48.557Z,13.70
2019-04-22T00:37:26.739Z,13.70
2019-04-22T00:39:55.077Z,13.60
2019-04-22T00:42:28.839Z,13.50
2019-04-22T00:45:00.722Z,13.40
2019-04-22T00:47:29.223Z,13.40
2019-04-22T00:50:14.482Z,13.30
2019-04-22T00:52:28.256Z,13.30
2019-04-22T00:55:06.106Z,13.10
2019-04-22T00:57:35.178Z,13.00
2019-04-22T01:00:05.619Z,13.00
2019-04-22T01:02:34.239Z,12.90
2019-04-22T01:05:07.699Z,12.70
2019-04-22T01:07:40.794Z,12.60
2019-04-22T01:10:11.732Z,12.50
2019-04-22T01:12:41.435Z,12.40
2019-04-22T01:15:17.459Z,12.30
2019-04-22T01:17:45.394Z,12.10
2019-04-22T01:20:41.779Z,12.10
2019-04-22T01:22:46.163Z,12.00
2019-04-22T01:25:14.369Z,11.80
2019-04-22T01:27:40.231Z,11.80
2019-04-22T01:30:10.908Z,11.70
2019-04-22T01:32:35.006Z,11.60
2019-04-22T01:35:14.364Z,11.50
2019-04-22T01:37:50.863Z,11.40
2019-04-22T01:40:33.172Z,11.40
2019-04-22T01:43:07.003Z,11.30
2019-04-22T01:45:35.668Z,11.30
2019-04-22T01:48:02.898Z,11.20
2019-04-22T01:50:39.850Z,11.20
2019-04-22T01:53:11.776Z,11.10
2019-04-22T01:55:38.840Z,11.10
2019-04-22T01:58:08.406Z,11.00
2019-04-22T02:00:51.487Z,11.00
2019-04-22T02:03:17.769Z,11.00
2019-04-22T02:05:44.164Z,11.00
2019-04-22T02:08:25.511Z,11.00
2019-04-22T02:10:54.824Z,10.90
2019-04-22T02:13:25.141Z,10.80
2019-04-22T02:15:52.699Z,10.80
2019-04-22T02:18:26.288Z,10.80
2019-04-22T02:20:49.587Z,10.90
2019-04-22T02:26:09.347Z,11.00
2019-04-22T02:28:45.787Z,11.00
2019-04-22T02:44:08.160Z,10.90
2019-04-22T02:46:40.737Z,10.80
2019-04-22T02:56:31.487Z,10.70
2019-04-22T02:59:04.233Z,10.70
2019-04-22T03:01:29.880Z,10.60
2019-04-22T03:04:06.615Z,10.60
2019-04-22T03:09:10.136Z,10.60
2019-04-22T03:11:42.037Z,10.50
2019-04-22T03:16:39.358Z,10.60
2019-04-22T03:19:17.745Z,10.60
2019-04-22T03:24:20.249Z,10.60
2019-04-22T03:29:39.118Z,10.60
2019-04-22T03:35:09.668Z,10.60
2019-04-22T03:39:38.491Z,10.60
2019-04-22T03:49:37.199Z,10.60
2019-04-22T03:52:16.293Z,10.50
2019-04-22T03:54:39.155Z,10.50
2019-04-22T03:59:41.527Z,10.50
2019-04-22T04:02:16.168Z,10.40
2019-04-22T04:09:40.610Z,10.40
2019-04-22T04:14:54.895Z,10.30
2019-04-22T04:22:30.459Z,10.30
2019-04-22T04:25:24.772Z,10.30
2019-04-22T04:27:43.542Z,10.40
2019-04-22T04:30:05.656Z,10.40
2019-04-22T04:37:40.975Z,10.40
2019-04-22T04:40:05.135Z,10.30
2019-04-22T04:45:29.826Z,10.30
2019-04-22T04:47:41.357Z,10.30
2019-04-22T04:53:01.109Z,10.30
2019-04-22T04:55:18.033Z,10.40
2019-04-22T04:57:52.487Z,10.50
2019-04-22T05:02:44.776Z,10.60
2019-04-22T05:05:12.570Z,10.50
2019-04-22T05:07:40.407Z,10.50
2019-04-22T05:12:53.091Z,10.80
2019-04-22T05:25:19.041Z,11.40
2019-04-22T05:27:47.365Z,11.50
2019-04-22T05:32:52.266Z,11.80
2019-04-22T05:35:20.756Z,11.80
2019-04-22T05:40:25.920Z,12.00
2019-04-22T05:42:49.671Z,12.20
2019-04-22T05:47:59.276Z,12.30
2019-04-22T05:50:22.888Z,12.50
2019-04-22T05:52:57.316Z,12.50
2019-04-22T05:55:36.309Z,12.70
2019-04-22T05:58:02.820Z,12.80
2019-04-22T06:03:21.093Z,13.20
2019-04-22T06:05:43.863Z,13.30
2019-04-22T06:08:10.618Z,13.40
2019-04-22T06:10:50.399Z,13.50
2019-04-22T06:13:12.480Z,13.70
2019-04-22T06:15:40.352Z,13.90
2019-04-22T06:18:25.456Z,14.10
2019-04-22T06:21:01.397Z,14.20
2019-04-22T06:23:25.690Z,14.30
2019-04-22T06:26:04.966Z,14.40
2019-04-22T06:33:29.530Z,14.80
2019-04-22T06:36:03.402Z,14.90
2019-04-22T06:41:09.306Z,15.30
2019-04-22T06:43:34.947Z,15.40
2019-04-22T06:46:13.049Z,15.60
2019-04-22T06:48:37.417Z,15.60
2019-04-22T06:51:06.819Z,15.80
2019-04-22T06:56:11.422Z,16.40
2019-04-22T06:58:39.906Z,16.70
2019-04-22T07:01:19.621Z,16.80
2019-04-22T07:06:23.994Z,17.20
2019-04-22T07:11:11.432Z,17.50
2019-04-22T07:13:51.748Z,17.60
2019-04-22T07:18:50.734Z,17.70
2019-04-22T07:21:22.203Z,17.80
2019-04-22T07:24:02.762Z,18.00
2019-04-22T07:26:21.945Z,18.10
2019-04-22T07:28:55.116Z,18.10
2019-04-22T07:31:30.662Z,18.30
2019-04-22T07:33:58.295Z,18.50
2019-04-22T07:39:05.738Z,19.00
2019-04-22T07:41:31.809Z,19.10
2019-04-22T07:51:36.377Z,19.80
2019-04-22T07:54:06.509Z,19.80
2019-04-22T07:56:40.896Z,19.80
2019-04-22T07:59:13.943Z,19.90
2019-04-22T08:01:44.824Z,20.10
2019-04-22T08:04:24.242Z,20.30
2019-04-22T08:09:24.577Z,20.50
2019-04-22T08:11:52.466Z,20.60
2019-04-22T08:14:24.256Z,20.70
2019-04-22T08:16:51.602Z,20.80
2019-04-22T08:19:33.139Z,21.00
2019-04-22T08:21:52.167Z,21.30
2019-04-22T08:24:30.570Z,21.40
2019-04-22T08:26:58.161Z,21.30
2019-04-22T08:29:40.208Z,21.20
2019-04-22T08:32:01.196Z,21.30
2019-04-22T08:34:31.008Z,21.40
2019-04-22T08:39:33.209Z,21.50
2019-04-22T08:42:16.235Z,21.70
2019-04-22T08:45:05.828Z,21.80
2019-04-22T08:49:50.503Z,22.20
2019-04-22T08:52:16.319Z,22.10
2019-04-22T08:54:49.049Z,22.10
2019-04-22T08:57:24.191Z,21.90
2019-04-22T08:59:50.055Z,22.00
2019-04-22T09:02:19.824Z,22.20
2019-04-22T09:04:52.144Z,22.50
2019-04-22T09:09:50.681Z,23.00
2019-04-22T09:12:34.655Z,23.10
2019-04-22T09:14:49.444Z,23.30
2019-04-22T09:17:40.319Z,23.50
2019-04-22T09:20:03.272Z,23.70
2019-04-22T09:22:26.334Z,23.60
2019-04-22T09:24:57.245Z,23.40
2019-04-22T09:30:01.655Z,23.70
2019-04-22T09:32:34.425Z,24.00
2019-04-22T09:35:04.375Z,24.30
2019-04-22T09:37:39.319Z,24.30
2019-04-22T09:40:13.946Z,24.50
2019-04-22T09:42:39.673Z,24.40
2019-04-22T09:45:21.407Z,24.40
2019-04-22T09:47:53.654Z,24.50
2019-04-22T09:50:15.344Z,24.50
2019-04-22T09:52:51.462Z,24.60
2019-04-22T09:55:19.728Z,24.80
2019-04-22T09:57:47.096Z,25.00
2019-04-22T10:00:14.756Z,25.10
2019-04-22T10:02:55.859Z,25.30
2019-04-22T10:05:23.833Z,25.40
2019-04-22T10:07:55.689Z,25.40
2019-04-22T10:10:28.162Z,25.50
2019-04-22T10:13:00.248Z,25.70
2019-04-22T10:15:25.225Z,25.70
2019-04-22T10:17:57.954Z,25.80
2019-04-22T10:20:36.258Z,25.90
2019-04-22T10:22:57.469Z,26.00
2019-04-22T10:25:36.403Z,26.40
2019-04-22T10:28:08.954Z,26.70
2019-04-22T10:30:46.231Z,26.50
2019-04-22T10:33:04.620Z,26.70
2019-04-22T10:35:19.188Z,26.70
2019-04-22T10:37:46.401Z,26.70
2019-04-22T10:40:21.755Z,26.60
2019-04-22T10:42:51.571Z,26.80
2019-04-22T10:45:21.965Z,26.70
2019-04-22T10:47:52.252Z,26.60
2019-04-22T10:50:25.098Z,26.50
2019-04-22T10:52:55.262Z,26.30
2019-04-22T10:55:25.420Z,26.30
2019-04-22T10:57:55.245Z,26.10
2019-04-22T11:00:25.079Z,26.20
2019-04-22T11:02:55.909Z,26.50
2019-04-22T11:05:28.134Z,26.50
2019-04-22T11:08:02.767Z,26.30
2019-04-22T11:10:42.544Z,26.30
2019-04-22T11:13:02.932Z,26.30
2019-04-22T11:15:32.934Z,26.60
2019-04-22T11:18:02.985Z,26.70
2019-04-22T11:20:33.720Z,26.60
2019-04-22T11:23:04.577Z,26.60
2019-04-22T11:25:36.023Z,26.50
2019-04-22T11:28:07.193Z,26.60
2019-04-22T11:30:38.635Z,26.60
2019-04-22T11:33:08.736Z,26.60
2019-04-22T11:35:39.609Z,26.60
2019-04-22T11:38:10.675Z,26.70
2019-04-22T11:40:47.495Z,26.80
2019-04-22T11:43:12.408Z,26.60
2019-04-22T11:45:42.616Z,26.70
2019-04-22T11:48:13.247Z,26.60
2019-04-22T11:50:43.964Z,26.40
2019-04-22T11:53:13.817Z,26.40
2019-04-22T11:55:44.600Z,26.50
2019-04-22T11:58:14.886Z,26.40
2019-04-22T12:00:45.143Z,26.60
2019-04-22T12:03:14.842Z,27.00
2019-04-22T12:05:45.975Z,27.30
2019-04-22T12:08:15.645Z,27.50
2019-04-22T12:10:51.598Z,27.20
2019-04-22T12:13:17.781Z,26.80
2019-04-22T12:15:49.018Z,26.70
2019-04-22T12:18:19.541Z,26.60
2019-04-22T12:20:49.152Z,26.90
2019-04-22T12:23:18.993Z,27.00
2019-04-22T12:25:57.113Z,27.00
2019-04-22T12:28:21.150Z,26.90
2019-04-22T12:30:51.239Z,26.90
2019-04-22T12:33:21.253Z,27.00
2019-04-22T12:35:50.832Z,26.90
2019-04-22T12:38:21.981Z,26.80
2019-04-22T12:40:57.418Z,26.60
2019-04-22T12:43:25.698Z,26.60
2019-04-22T12:45:54.435Z,26.70
2019-04-22T12:48:25.421Z,26.80
2019-04-22T12:50:58.037Z,27.00
2019-04-22T12:53:28.063Z,27.00
2019-04-22T12:55:59.337Z,26.90
2019-04-22T12:58:29.827Z,26.90
2019-04-22T13:01:01.046Z,26.80
2019-04-22T13:03:31.968Z,26.70
2019-04-22T13:06:01.772Z,26.60
2019-04-22T13:08:31.723Z,26.70
2019-04-22T13:11:08.725Z,26.90
2019-04-22T13:13:34.438Z,27.00
2019-04-22T13:16:04.707Z,27.00
2019-04-22T13:18:42.039Z,26.80
2019-04-22T13:21:06.543Z,26.60
2019-04-22T13:23:36.918Z,26.60
2019-04-22T13:26:07.440Z,26.50
2019-04-22T13:28:37.025Z,26.50
2019-04-22T13:31:07.776Z,26.70
2019-04-22T13:33:38.770Z,26.80
2019-04-22T13:36:08.365Z,26.60
2019-04-22T13:38:38.739Z,26.60
2019-04-22T13:41:21.102Z,26.60
2019-04-22T13:43:41.012Z,26.40
2019-04-22T13:46:12.289Z,26.20
2019-04-22T13:49:05.970Z,26.30
2019-04-22T13:51:48.848Z,26.30
2019-04-22T13:54:42.386Z,26.30
2019-04-22T13:56:38.691Z,26.50
2019-04-22T13:58:58.993Z,26.50
2019-04-22T14:01:20.556Z,26.40
2019-04-22T14:03:58.809Z,26.20
2019-04-22T14:06:29.129Z,26.20
2019-04-22T14:08:59.129Z,26.30
2019-04-22T14:11:39.064Z,26.30
2019-04-22T14:14:00.862Z,26.30
2019-04-22T14:16:31.149Z,26.40
2019-04-22T14:19:02.026Z,26.30
2019-04-22T14:21:32.658Z,26.50
2019-04-22T14:24:02.749Z,26.50
2019-04-22T14:26:46.850Z,26.50
2019-04-22T14:29:04.129Z,26.60
2019-04-22T14:31:34.200Z,26.70
2019-04-22T14:34:05.872Z,26.50
2019-04-22T14:36:35.303Z,26.40
2019-04-22T14:39:08.153Z,26.40
2019-04-22T14:41:55.396Z,26.50
2019-04-22T14:47:10.845Z,26.30
2019-04-22T14:49:37.097Z,26.50
2019-04-22T14:52:05.282Z,26.30
2019-04-22T14:54:33.809Z,26.20
2019-04-22T14:56:46.728Z,26.10
2019-04-22T14:59:16.719Z,26.10
2019-04-22T15:01:47.574Z,26.10
2019-04-22T15:04:17.535Z,26.10
2019-04-22T15:06:50.119Z,26.20
2019-04-22T15:09:19.702Z,26.10
2019-04-22T15:11:58.208Z,26.10
2019-04-22T15:14:21.598Z,26.00
2019-04-22T15:16:55.045Z,25.90
2019-04-22T15:19:27.590Z,25.80
2019-04-22T15:21:58.646Z,25.60
2019-04-22T15:24:29.435Z,25.50
2019-04-22T15:27:00.651Z,25.50
2019-04-22T15:29:31.593Z,25.40
2019-04-22T15:32:01.427Z,25.50
2019-04-22T15:34:32.561Z,25.50
2019-04-22T15:37:02.403Z,25.40
2019-04-22T15:39:31.990Z,25.40
2019-04-22T15:42:11.602Z,25.40
2019-04-22T15:44:33.840Z,25.40
2019-04-22T15:47:04.877Z,25.40
2019-04-22T15:49:35.741Z,25.10
2019-04-22T15:52:06.619Z,25.20
2019-04-22T15:54:37.648Z,25.20
2019-04-22T15:57:08.696Z,25.20
2019-04-22T15:59:54.002Z,25.10
2019-04-22T16:02:10.074Z,25.10
2019-04-22T16:04:42.373Z,25.10
2019-04-22T16:07:12.816Z,25.10
2019-04-22T16:09:43.518Z,25.00
2019-04-22T16:12:21.555Z,24.90
2019-04-22T16:14:49.461Z,24.70
2019-04-22T16:17:16.800Z,24.70
2019-04-22T16:19:46.687Z,24.60
2019-04-22T16:22:19.085Z,24.60
2019-04-22T16:25:07.010Z,24.50
2019-04-22T16:27:36.784Z,24.50
2019-04-22T16:30:07.682Z,24.40
2019-04-22T16:32:37.423Z,24.30
2019-04-22T16:35:08.743Z,24.20
2019-04-22T16:37:38.960Z,24.30
2019-04-22T16:40:09.323Z,24.30
2019-04-22T16:42:45.826Z,24.20
2019-04-22T16:45:11.629Z,24.10
2019-04-22T16:47:41.808Z,24.10
2019-04-22T16:50:11.626Z,24.00
2019-04-22T16:52:41.832Z,23.90
2019-04-22T16:55:12.824Z,23.80
2019-04-22T16:57:43.982Z,23.70
2019-04-22T17:00:16.409Z,23.60
2019-04-22T17:03:06.787Z,23.60
2019-04-22T17:05:53.735Z,23.60
2019-04-22T17:08:24.606Z,23.50
2019-04-22T17:10:55.658Z,23.40
2019-04-22T17:13:30.294Z,23.40
2019-04-22T17:16:00.499Z,23.40
2019-04-22T17:18:29.025Z,23.30
2019-04-22T17:20:58.792Z,23.20
2019-04-22T17:23:29.558Z,23.10
2019-04-22T17:26:00.668Z,23.10
2019-04-22T17:28:31.308Z,23.00
2019-04-22T17:31:01.914Z,23.10
2019-04-22T17:33:32.790Z,23.00
2019-04-22T17:36:03.327Z,22.90
2019-04-22T17:38:42.754Z,22.80
2019-04-22T17:41:16.200Z,22.70
2019-04-22T17:44:02.137Z,22.70
2019-04-22T17:46:30.500Z,22.60
2019-04-22T17:49:06.046Z,22.50
2019-04-22T17:51:36.439Z,22.50
2019-04-22T17:54:08.275Z,22.30
2019-04-22T17:56:42.232Z,22.30
2019-04-22T17:59:12.263Z,22.20
2019-04-22T18:01:40.199Z,22.10
2019-04-22T18:03:57.399Z,22.00
2019-04-22T18:06:48.953Z,21.90
2019-04-22T18:09:12.844Z,21.90
2019-04-22T18:11:48.261Z,21.70
2019-04-22T18:14:44.893Z,21.70
2019-04-22T18:16:45.902Z,21.60
2019-04-22T18:19:19.343Z,21.50
2019-04-22T18:21:46.205Z,21.40
2019-04-22T18:24:11.911Z,21.30
2019-04-22T18:26:55.633Z,21.20
2019-04-22T18:29:25.522Z,21.10
2019-04-22T18:31:48.985Z,21.00
2019-04-22T18:34:23.632Z,21.00
2019-04-22T18:36:58.945Z,20.90
2019-04-22T18:39:40.524Z,20.80
2019-04-22T18:42:03.148Z,20.80
2019-04-22T18:44:42.354Z,20.60
2019-04-22T18:47:10.554Z,20.60
2019-04-22T18:49:41.783Z,20.60
2019-04-22T18:52:21.354Z,20.40
2019-04-22T18:55:02.571Z,20.30
2019-04-22T18:57:35.790Z,20.30
2019-04-22T18:59:53.863Z,20.10
2019-04-22T19:02:24.694Z,20.10
2019-04-22T19:05:01.074Z,20.00
2019-04-22T19:07:49.757Z,19.90
2019-04-22T19:10:17.316Z,19.90
2019-04-22T19:12:58.552Z,19.90
2019-04-22T19:15:19.168Z,19.80
2019-04-22T19:17:54.376Z,19.60
2019-04-22T19:20:27.191Z,19.70
2019-04-22T19:22:57.090Z,19.70
2019-04-22T19:25:17.383Z,19.70
2019-04-22T19:27:53.601Z,19.60
2019-04-22T19:30:30.247Z,19.50
2019-04-22T19:33:06.338Z,19.50
2019-04-22T19:35:30.202Z,19.40
2019-04-22T19:37:58.731Z,19.30
2019-04-22T19:40:47.819Z,19.30
2019-04-22T19:43:09.806Z,19.20
2019-04-22T19:45:44.371Z,19.20
2019-04-22T19:48:21.832Z,19.10
2019-04-22T19:50:54.342Z,19.00
2019-04-22T19:53:22.687Z,19.00
2019-04-22T19:55:46.525Z,18.90
2019-04-22T19:58:22.001Z,18.90
2019-04-22T20:01:02.366Z,18.90
2019-04-22T20:03:49.795Z,18.80
2019-04-22T20:06:33.901Z,18.70
2019-04-22T20:09:05.717Z,18.70
2019-04-22T20:11:38.707Z,18.70
2019-04-22T20:14:12.049Z,18.60
2019-04-22T20:16:37.519Z,18.50
2019-04-22T20:19:19.129Z,18.50
2019-04-22T20:21:49.362Z,18.40
2019-04-22T20:24:05.720Z,18.40
2019-04-22T20:26:51.231Z,18.30
2019-04-22T20:29:25.747Z,18.30
2019-04-22T20:31:54.579Z,18.30
2019-04-22T20:34:24.079Z,18.20
2019-04-22T20:37:04.710Z,18.10
2019-04-22T20:39:28.381Z,18.10
2019-04-22T20:41:57.646Z,18.00
2019-04-22T20:44:30.174Z,18.00
2019-04-22T20:46:56.132Z,17.90
2019-04-22T20:49:31.075Z,17.90
2019-04-22T20:52:23.587Z,17.80
2019-04-22T20:54:32.561Z,17.80
2019-04-22T20:56:55.329Z,17.70
2019-04-22T20:59:34.631Z,17.60
2019-04-22T21:02:05.156Z,17.60
2019-04-22T21:04:27.785Z,17.60
2019-04-22T21:07:03.740Z,17.50
2019-04-22T21:09:38.170Z,17.40
2019-04-22T21:12:07.689Z,17.40
2019-04-22T21:14:44.076Z,17.40
2019-04-22T21:17:13.618Z,17.40
2019-04-22T21:19:54.651Z,17.30
2019-04-22T21:22:16.003Z,17.30
2019-04-22T21:24:46.065Z,17.20
2019-04-22T21:27:23.732Z,17.20
2019-04-22T21:29:48.348Z,17.10
2019-04-22T21:32:24.021Z,17.10
2019-04-22T21:34:59.639Z,17.10
2019-04-22T21:37:25.187Z,17.00
2019-04-22T21:39:51.879Z,16.90
2019-04-22T21:42:26.551Z,16.90
2019-04-22T21:44:55.747Z,16.90
2019-04-22T21:47:35.326Z,16.80
2019-04-22T21:50:21.354Z,16.70
2019-04-22T21:52:35.838Z,16.60
2019-04-22T21:55:10.527Z,16.60
2019-04-22T21:57:57.350Z,16.50
2019-04-22T22:00:36.626Z,16.50
2019-04-22T22:02:58.541Z,16.40
2019-04-22T22:05:27.985Z,16.40
2019-04-22T22:07:53.413Z,16.40
2019-04-22T22:10:34.325Z,16.30
2019-04-22T22:13:06.684Z,16.20
2019-04-22T22:15:40.335Z,16.20
2019-04-22T22:18:05.188Z,16.10
2019-04-22T22:20:43.221Z,16.10
2019-04-22T22:23:22.250Z,16.00
2019-04-22T22:25:38.864Z,16.00
2019-04-22T22:28:31.393Z,15.90
2019-04-22T22:33:18.754Z,15.80
2019-04-22T22:35:45.560Z,15.70
2019-04-22T22:38:18.753Z,15.70
2019-04-22T22:40:34.024Z,15.70
2019-04-22T22:43:11.958Z,15.60
2019-04-22T22:45:39.714Z,15.60
2019-04-22T22:48:28.206Z,15.50
2019-04-22T22:50:50.741Z,15.50
2019-04-22T22:53:34.032Z,15.40
2019-04-22T22:55:57.700Z,15.40
2019-04-22T22:58:28.045Z,15.30
2019-04-22T23:00:57.912Z,15.20
2019-04-22T23:03:46.041Z,15.20
2019-04-22T23:06:04.774Z,15.20
2019-04-22T23:08:44.715Z,15.10
2019-04-22T23:11:05.623Z,15.00
2019-04-22T23:13:38.956Z,15.00
2019-04-22T23:16:00.873Z,15.00
2019-04-22T23:18:19.749Z,14.90
2019-04-22T23:20:51.806Z,14.90
2019-04-22T23:23:37.902Z,14.90
2019-04-22T23:26:10.395Z,14.80
2019-04-22T23:28:43.091Z,14.90
2019-04-22T23:31:09.574Z,14.70
2019-04-22T23:33:54.671Z,14.70
2019-04-22T23:36:30.540Z,14.60
2019-04-22T23:39:10.950Z,14.50
2019-04-22T23:41:50.963Z,14.50
2019-04-22T23:44:17.781Z,14.50
2019-04-22T23:46:55.348Z,14.40
2019-04-22T23:49:26.659Z,14.40
2019-04-22T23:52:09.032Z,14.30
2019-04-22T23:54:39.051Z,14.20
2019-04-22T23:57:00.263Z,14.20
2019-04-22T23:59:44.919Z,14.10
